Time;durP1;ratioP1;P1;durP2;ratioP2;P2;SDS_P1;SDS_P2;PMS_P1;PMS_P2;Temp;Humidity;BMP_temperature;BMP_pressure;BME280_temperature;BME280_humidity;BME280_pressure;Samples;Min_cycle;Max_cycle;Signal;HPM_P1;HPM_P2
2021/10/09 00:00:06;;;;;;;27.05;17.30;;;;;;;;;;5096062;28;20512;-78
2021/10/09 00:02:31;;;;;;;28.88;16.88;;;;;;;;;;5095984;28;20107;-77
2021/10/09 00:04:57;;;;;;;29.08;17.10;;;;;;;;;;5096159;28;20061;-78
2021/10/09 00:07:22;;;;;;;27.70;17.35;;;;;;;;;;5096069;28;20420;-77
2021/10/09 00:09:50;;;;;;;47.65;19.65;;;;;;;;;;5082218;28;20410;-78
2021/10/09 00:12:16;;;;;;;27.98;18.48;;;;;;;;;;5075741;28;20051;-78
2021/10/09 00:14:41;;;;;;;29.88;18.25;;;;;;;;;;5075651;28;20421;-78
2021/10/09 00:17:08;;;;;;;26.52;16.70;;;;;;;;;;5075586;28;20036;-79
2021/10/09 00:19:34;;;;;;;30.58;15.63;;;;;;;;;;5075514;28;20078;-77
2021/10/09 00:21:59;;;;;;;31.65;16.70;;;;;;;;;;5075568;28;20615;-78
2021/10/09 00:24:24;;;;;;;27.17;16.48;;;;;;;;;;5075028;28;20555;-78
2021/10/09 00:26:50;;;;;;;38.92;15.75;;;;;;;;;;5075145;28;20040;-79
2021/10/09 00:29:15;;;;;;;49.47;16.58;;;;;;;;;;5075288;28;20459;-77
2021/10/09 00:31:41;;;;;;;28.48;17.40;;;;;;;;;;5075476;28;20036;-77
2021/10/09 00:34:06;;;;;;;35.17;17.75;;;;;;;;;;5075214;28;20040;-78
2021/10/09 00:36:32;;;;;;;34.00;17.52;;;;;;;;;;5075375;28;20081;-78
2021/10/09 00:38:58;;;;;;;24.73;16.40;;;;;;;;;;5086057;28;20100;-77
2021/10/09 00:41:23;;;;;;;30.08;17.02;;;;;;;;;;5097100;28;20042;-77
2021/10/09 00:43:49;;;;;;;39.97;18.00;;;;;;;;;;5095285;28;20474;-77
2021/10/09 00:46:15;;;;;;;42.38;18.77;;;;;;;;;;5095358;28;20044;-78
2021/10/09 00:48:41;;;;;;;54.20;18.98;;;;;;;;;;5094155;28;20066;-79
2021/10/09 00:51:06;;;;;;;51.38;19.17;;;;;;;;;;5094109;28;20036;-78
2021/10/09 00:53:33;;;;;;;58.75;17.48;;;;;;;;;;5093825;28;20085;-78
2021/10/09 00:56:01;;;;;;;54.63;17.60;;;;;;;;;;5095203;28;20023;-78
2021/10/09 00:58:28;;;;;;;53.90;17.75;;;;;;;;;;5093855;28;20036;-78
2021/10/09 01:00:55;;;;;;;82.22;16.65;;;;;;;;;;5093902;28;20416;-77
2021/10/09 01:03:21;;;;;;;41.88;15.50;;;;;;;;;;5094072;28;20034;-78
2021/10/09 01:05:47;;;;;;;24.92;16.58;;;;;;;;;;5094026;28;20024;-78
2021/10/09 01:08:13;;;;;;;21.83;17.10;;;;;;;;;;5095090;28;20043;-77
2021/10/09 01:10:39;;;;;;;24.92;16.77;;;;;;;;;;5093860;28;20042;-78
2021/10/09 01:13:05;;;;;;;32.60;17.05;;;;;;;;;;5095275;28;20503;-78
2021/10/09 01:15:32;;;;;;;104.28;18.17;;;;;;;;;;5080994;28;20035;-78
2021/10/09 01:18:12;;;;;;;32.88;16.60;;;;;;;;;;5073699;28;20132;-77
2021/10/09 01:20:54;;;;;;;31.48;16.85;;;;;;;;;;5073466;28;20028;-78
2021/10/09 01:23:24;;;;;;;27.17;15.73;;;;;;;;;;5073358;28;20116;-78
2021/10/09 01:25:51;;;;;;;52.90;17.85;;;;;;;;;;5073219;28;20066;-78
2021/10/09 01:28:17;;;;;;;23.75;16.42;;;;;;;;;;5073173;28;20044;-78
2021/10/09 01:30:44;;;;;;;23.40;16.40;;;;;;;;;;5072913;28;20055;-78
2021/10/09 01:33:10;;;;;;;80.10;18.35;;;;;;;;;;5073649;28;20433;-79
2021/10/09 01:35:49;;;;;;;32.88;17.65;;;;;;;;;;5074410;28;20028;-77
2021/10/09 01:38:19;;;;;;;33.47;15.93;;;;;;;;;;5073580;28;20040;-78
2021/10/09 01:40:45;;;;;;;208.88;19.80;;;;;;;;;;5092890;28;20382;-77
2021/10/09 01:43:11;;;;;;;56.45;16.23;;;;;;;;;;5093517;28;20061;-77
2021/10/09 01:45:38;;;;;;;84.25;17.33;;;;;;;;;;5094255;28;20039;-77
2021/10/09 01:48:03;;;;;;;46.88;17.45;;;;;;;;;;5094472;28;20042;-77
2021/10/09 01:50:29;;;;;;;27.50;16.92;;;;;;;;;;5094412;28;20035;-79
2021/10/09 01:52:54;;;;;;;142.10;17.95;;;;;;;;;;5092769;28;20038;-79
2021/10/09 01:55:20;;;;;;;69.70;15.20;;;;;;;;;;5092822;28;20445;-78
2021/10/09 01:57:46;;;;;;;59.67;17.48;;;;;;;;;;5093068;28;20031;-78
2021/10/09 02:00:12;;;;;;;31.75;17.02;;;;;;;;;;5092767;28;20097;-77
2021/10/09 02:02:53;;;;;;;53.50;17.63;;;;;;;;;;5094458;28;20390;-79
2021/10/09 02:05:20;;;;;;;158.43;17.23;;;;;;;;;;5094038;28;20043;-77
2021/10/09 02:07:46;;;;;;;23.08;15.88;;;;;;;;;;5092988;28;20028;-78
2021/10/09 02:10:14;;;;;;;32.03;16.90;;;;;;;;;;5110902;28;20080;-77
2021/10/09 02:12:42;;;;;;;51.15;16.70;;;;;;;;;;5113493;28;20085;-78
2021/10/09 02:15:19;;;;;;;25.48;16.27;;;;;;;;;;5112843;28;20035;-78
2021/10/09 02:25:58;;;;;;;56.85;18.13;;;;;;;;;;5084831;28;20047;-78
2021/10/09 02:28:24;;;;;;;53.08;15.25;;;;;;;;;;5112543;28;20028;-78
2021/10/09 02:30:52;;;;;;;45.22;15.13;;;;;;;;;;5112558;28;20514;-78
2021/10/09 02:33:20;;;;;;;28.48;15.63;;;;;;;;;;5112711;28;20541;-78
2021/10/09 02:35:46;;;;;;;98.93;17.02;;;;;;;;;;5112904;28;20039;-78
2021/10/09 02:38:12;;;;;;;57.83;16.42;;;;;;;;;;5112606;28;20504;-78
2021/10/09 02:40:39;;;;;;;164.10;16.25;;;;;;;;;;5098431;28;20028;-78
2021/10/09 02:43:04;;;;;;;132.20;15.38;;;;;;;;;;5094205;28;20040;-78
2021/10/09 02:45:30;;;;;;;117.88;15.95;;;;;;;;;;5075955;28;20148;-78
2021/10/09 02:48:01;;;;;;;48.95;13.88;;;;;;;;;;5092815;28;20063;-78
2021/10/09 02:50:30;;;;;;;81.28;14.02;;;;;;;;;;5092847;28;20028;-79
2021/10/09 02:52:56;;;;;;;272.27;16.25;;;;;;;;;;5098239;28;20047;-78
2021/10/09 02:55:22;;;;;;;71.22;15.30;;;;;;;;;;5098157;28;20416;-78
2021/10/09 02:57:50;;;;;;;112.95;18.10;;;;;;;;;;5096796;28;20050;-78
2021/10/09 03:00:17;;;;;;;71.50;19.05;;;;;;;;;;5098035;28;20458;-78
2021/10/09 03:02:43;;;;;;;84.20;19.25;;;;;;;;;;5096226;28;20028;-77
2021/10/09 03:05:12;;;;;;;204.32;19.23;;;;;;;;;;5096202;28;20023;-78
2021/10/09 03:07:39;;;;;;;49.70;17.88;;;;;;;;;;5096270;28;20036;-77
2021/10/09 03:10:07;;;;;;;146.05;16.67;;;;;;;;;;5095604;28;20469;-77
2021/10/09 03:12:33;;;;;;;32.72;14.20;;;;;;;;;;5096118;28;20490;-78
2021/10/09 03:14:58;;;;;;;33.92;12.27;;;;;;;;;;5096009;28;20032;-78
2021/10/09 03:17:24;;;;;;;43.42;13.95;;;;;;;;;;5096418;28;20043;-78
2021/10/09 03:19:49;;;;;;;26.45;11.98;;;;;;;;;;5095322;28;20076;-78
2021/10/09 03:22:16;;;;;;;24.67;12.02;;;;;;;;;;5096083;28;20123;-77
2021/10/09 03:24:42;;;;;;;58.88;12.55;;;;;;;;;;5095536;28;20054;-78
2021/10/09 03:27:10;;;;;;;39.65;12.88;;;;;;;;;;5097430;28;20024;-77
2021/10/09 03:29:36;;;;;;;42.58;11.40;;;;;;;;;;5095714;28;20032;-77
2021/10/09 03:32:02;;;;;;;91.93;10.88;;;;;;;;;;5079045;28;20028;-78
2021/10/09 03:34:32;;;;;;;33.00;10.20;;;;;;;;;;5095603;28;20024;-79
2021/10/09 03:37:00;;;;;;;20.20;12.02;;;;;;;;;;5096001;28;20397;-79
2021/10/09 03:39:28;;;;;;;14.93;10.90;;;;;;;;;;5093304;28;20127;-79
2021/10/09 03:42:05;;;;;;;12.55;10.85;;;;;;;;;;5074919;28;20038;-79
2021/10/09 03:44:35;;;;;;;13.52;11.52;;;;;;;;;;5075130;28;20074;-78
2021/10/09 03:47:13;;;;;;;34.78;13.13;;;;;;;;;;5075006;28;20043;-78
2021/10/09 03:49:59;;;;;;;19.92;12.82;;;;;;;;;;5076275;28;20470;-79
2021/10/09 03:55:00;;;;;;;57.85;11.98;;;;;;;;;;5074352;28;20051;-78
2021/10/09 03:57:25;;;;;;;39.10;11.45;;;;;;;;;;5074861;28;20035;-78
2021/10/09 03:59:51;;;;;;;65.10;11.45;;;;;;;;;;5074819;28;20453;-77
2021/10/09 04:02:16;;;;;;;49.50;11.18;;;;;;;;;;5074276;28;20046;-77
2021/10/09 04:04:42;;;;;;;140.13;12.25;;;;;;;;;;5074843;28;20039;-78
2021/10/09 04:07:07;;;;;;;21.52;11.50;;;;;;;;;;5074576;28;20076;-78
2021/10/09 04:09:33;;;;;;;36.60;13.77;;;;;;;;;;5080506;28;20031;-77
2021/10/09 04:11:59;;;;;;;22.75;14.02;;;;;;;;;;5114801;28;20031;-77
2021/10/09 04:14:24;;;;;;;31.38;14.25;;;;;;;;;;5106509;27;20156;-79
2021/10/09 04:16:50;;;;;;;80.65;13.85;;;;;;;;;;5094737;28;20036;-77
2021/10/09 04:19:15;;;;;;;135.25;28.27;;;;;;;;;;5094460;28;20046;-78
2021/10/09 04:21:42;;;;;;;68.82;14.80;;;;;;;;;;5094527;28;20032;-78
2021/10/09 04:24:08;;;;;;;45.78;13.27;;;;;;;;;;5095861;28;20025;-78
2021/10/09 04:26:33;;;;;;;39.58;12.35;;;;;;;;;;5095778;28;20036;-77
2021/10/09 04:29:02;;;;;;;50.90;10.85;;;;;;;;;;5095772;28;20085;-77
2021/10/09 04:31:27;;;;;;;101.82;12.75;;;;;;;;;;5094469;28;20542;-77
2021/10/09 04:33:53;;;;;;;88.93;12.95;;;;;;;;;;5094347;28;20470;-78
2021/10/09 04:36:20;;;;;;;80.53;12.38;;;;;;;;;;5094052;28;20020;-78
2021/10/09 04:38:46;;;;;;;50.55;12.40;;;;;;;;;;5096133;28;20166;-78
2021/10/09 04:41:12;;;;;;;38.88;9.88;;;;;;;;;;5078394;28;20425;-78
2021/10/09 04:43:39;;;;;;;17.15;11.05;;;;;;;;;;5074732;28;20078;-78
2021/10/09 04:46:05;;;;;;;23.02;11.43;;;;;;;;;;5076457;28;20475;-79
2021/10/09 04:48:30;;;;;;;28.77;10.93;;;;;;;;;;5074992;28;20060;-79
2021/10/09 04:50:56;;;;;;;34.00;10.70;;;;;;;;;;5075742;28;20032;-79
2021/10/09 04:53:22;;;;;;;22.38;10.65;;;;;;;;;;5075450;28;20060;-77
2021/10/09 04:55:49;;;;;;;16.60;10.50;;;;;;;;;;5074053;28;20493;-78
2021/10/09 04:58:14;;;;;;;13.68;10.18;;;;;;;;;;5074091;28;20037;-78
2021/10/09 05:00:40;;;;;;;59.25;10.95;;;;;;;;;;5073615;28;20047;-78
2021/10/09 05:03:05;;;;;;;98.95;10.80;;;;;;;;;;5074046;28;20033;-78
2021/10/09 05:05:33;;;;;;;20.15;10.95;;;;;;;;;;5073877;28;20064;-78
2021/10/09 05:07:59;;;;;;;48.63;11.20;;;;;;;;;;5073939;28;20035;-78
2021/10/09 05:10:27;;;;;;;24.25;11.13;;;;;;;;;;5093260;28;20035;-78
2021/10/09 05:12:53;;;;;;;41.70;10.23;;;;;;;;;;5102951;28;20024;-78
2021/10/09 05:15:19;;;;;;;19.17;9.90;;;;;;;;;;5093069;28;20101;-78
2021/10/09 05:17:45;;;;;;;23.02;10.60;;;;;;;;;;5093476;28;20032;-79
2021/10/09 05:20:10;;;;;;;32.38;10.15;;;;;;;;;;5093435;28;20043;-78
2021/10/09 05:22:37;;;;;;;13.43;10.15;;;;;;;;;;5093489;28;20032;-78
2021/10/09 05:25:04;;;;;;;15.55;10.18;;;;;;;;;;5093475;28;20042;-78
2021/10/09 05:27:31;;;;;;;11.00;9.27;;;;;;;;;;5092958;28;20439;-77
2021/10/09 05:30:03;;;;;;;22.20;9.52;;;;;;;;;;5093226;28;20066;-79
2021/10/09 05:32:32;;;;;;;19.48;9.57;;;;;;;;;;5093128;28;20050;-78
2021/10/09 05:34:58;;;;;;;113.03;10.65;;;;;;;;;;5093060;28;20039;-78
2021/10/09 05:37:24;;;;;;;15.38;9.63;;;;;;;;;;5093396;28;20032;-77
2021/10/09 05:39:50;;;;;;;15.88;9.57;;;;;;;;;;5087412;28;20047;-77
2021/10/09 05:42:16;;;;;;;12.15;9.60;;;;;;;;;;5074530;28;20033;-78
2021/10/09 05:44:41;;;;;;;33.05;9.88;;;;;;;;;;5072891;28;20055;-76
2021/10/09 05:47:07;;;;;;;25.75;9.77;;;;;;;;;;5072151;28;20024;-76
2021/10/09 05:49:34;;;;;;;77.68;10.55;;;;;;;;;;5073648;28;20036;-77
2021/10/09 05:52:06;;;;;;;26.05;9.45;;;;;;;;;;5070285;28;20039;-77
2021/10/09 05:54:58;;;;;;;32.10;11.43;;;;;;;;;;5069798;28;20044;-77
2021/10/09 05:57:33;;;;;;;19.05;9.27;;;;;;;;;;5073549;28;20033;-76
2021/10/09 07:00:19;;;;;;;13.73;10.13;;;;;;;;;;5091923;28;20035;-78
2021/10/09 07:02:47;;;;;;;20.10;10.48;;;;;;;;;;5091938;28;20034;-77
2021/10/09 07:05:16;;;;;;;34.95;10.88;;;;;;;;;;5091919;28;20024;-77
2021/10/09 07:08:04;;;;;;;15.73;10.18;;;;;;;;;;5092074;28;20036;-77
2021/10/09 07:10:40;;;;;;;27.50;10.63;;;;;;;;;;5074492;28;20035;-77
2021/10/09 07:13:07;;;;;;;19.88;10.98;;;;;;;;;;5091668;28;20058;-77
2021/10/09 07:15:33;;;;;;;17.52;11.20;;;;;;;;;;5091940;28;20054;-77
2021/10/09 07:17:58;;;;;;;14.32;9.40;;;;;;;;;;5091096;28;20032;-77
2021/10/09 07:20:24;;;;;;;24.45;10.63;;;;;;;;;;5091656;28;20065;-77
2021/10/09 07:22:50;;;;;;;13.48;10.02;;;;;;;;;;5091821;28;20119;-77
2021/10/09 07:25:16;;;;;;;14.55;11.23;;;;;;;;;;5091306;28;20408;-77
2021/10/09 07:27:42;;;;;;;79.85;24.58;;;;;;;;;;5091718;28;20418;-77
2021/10/09 07:30:08;;;;;;;268.25;15.48;;;;;;;;;;5091726;28;20036;-77
2021/10/09 07:32:34;;;;;;;48.60;14.77;;;;;;;;;;5092973;28;20040;-77
2021/10/09 07:34:59;;;;;;;18.75;13.23;;;;;;;;;;5093002;28;20044;-77
2021/10/09 07:37:25;;;;;;;29.50;13.20;;;;;;;;;;5094082;28;20040;-77
2021/10/09 07:39:50;;;;;;;20.02;11.57;;;;;;;;;;5094957;28;20052;-77
2021/10/09 07:42:16;;;;;;;34.03;13.48;;;;;;;;;;5095449;28;20032;-77
2021/10/09 07:44:41;;;;;;;51.95;13.02;;;;;;;;;;5095724;28;20032;-77
2021/10/09 07:47:08;;;;;;;20.60;12.38;;;;;;;;;;5096381;28;20143;-77
2021/10/09 07:49:34;;;;;;;21.02;14.00;;;;;;;;;;5096487;28;20043;-77
2021/10/09 07:51:59;;;;;;;17.20;13.23;;;;;;;;;;5096299;28;20416;-77
2021/10/09 07:54:25;;;;;;;18.52;13.70;;;;;;;;;;5095857;28;20470;-77
2021/10/09 07:56:50;;;;;;;25.48;14.43;;;;;;;;;;5095947;28;20119;-77
2021/10/09 07:59:15;;;;;;;18.00;13.07;;;;;;;;;;5095043;28;20069;-77
2021/10/09 08:01:41;;;;;;;16.63;12.23;;;;;;;;;;5096326;28;20089;-77
2021/10/09 08:04:09;;;;;;;122.53;15.20;;;;;;;;;;5096271;28;20089;-77
2021/10/09 08:06:35;;;;;;;19.08;13.85;;;;;;;;;;5095054;28;20496;-76
2021/10/09 08:09:00;;;;;;;21.40;14.13;;;;;;;;;;5095962;28;20036;-77
2021/10/09 08:11:26;;;;;;;18.08;13.27;;;;;;;;;;5095060;28;20032;-76
2021/10/09 08:13:51;;;;;;;19.55;13.95;;;;;;;;;;5094804;28;20097;-77
2021/10/09 08:16:16;;;;;;;27.40;13.23;;;;;;;;;;5095542;28;20035;-77
2021/10/09 08:18:42;;;;;;;17.40;12.85;;;;;;;;;;5095244;28;20039;-76
2021/10/09 08:21:08;;;;;;;31.90;15.95;;;;;;;;;;5094121;28;20036;-76
2021/10/09 08:23:50;;;;;;;23.15;16.15;;;;;;;;;;5095944;28;20032;-77
2021/10/09 08:35:24;;;;;;;23.67;14.50;;;;;;;;;;5095309;28;20435;-76
2021/10/09 08:39:29;;;;;;;18.35;11.65;;;;;;;;;;5094421;28;20044;-77
2021/10/09 08:41:54;;;;;;;19.55;12.60;;;;;;;;;;5095184;28;20085;-77
2021/10/09 08:44:20;;;;;;;17.05;12.35;;;;;;;;;;5095008;28;20084;-77
2021/10/09 08:46:45;;;;;;;19.05;12.57;;;;;;;;;;5095405;28;20036;-77
2021/10/09 08:49:11;;;;;;;20.30;12.13;;;;;;;;;;5093770;28;20035;-77
2021/10/09 08:51:37;;;;;;;17.05;11.82;;;;;;;;;;5095382;28;20486;-77
2021/10/09 08:54:10;;;;;;;18.83;11.88;;;;;;;;;;5095171;28;20564;-77
2021/10/09 08:56:38;;;;;;;20.13;12.38;;;;;;;;;;5094925;28;20039;-77
2021/10/09 08:59:22;;;;;;;21.35;12.25;;;;;;;;;;5095004;28;20476;-76
2021/10/09 09:02:14;;;;;;;21.90;12.65;;;;;;;;;;5095069;28;20119;-77
2021/10/09 09:04:49;;;;;;;21.83;12.30;;;;;;;;;;5094966;28;20028;-76
2021/10/09 09:26:20;;;;;;;28.30;14.77;;;;;;;;;;5094600;28;20039;-77
2021/10/09 09:31:49;;;;;;;34.28;14.98;;;;;;;;;;5094258;28;20039;-76
2021/10/09 09:37:28;;;;;;;30.60;14.02;;;;;;;;;;5094512;28;20032;-76
2021/10/09 09:39:47;;;;;;;23.23;13.50;;;;;;;;;;5093088;28;20127;-76
2021/10/09 09:42:24;;;;;;;30.70;13.73;;;;;;;;;;5094381;28;20123;-76
2021/10/09 09:44:56;;;;;;;27.75;12.98;;;;;;;;;;5092388;28;20034;-77
2021/10/09 09:47:36;;;;;;;27.10;14.68;;;;;;;;;;5092900;28;20032;-77
2021/10/09 09:50:05;;;;;;;29.55;14.13;;;;;;;;;;5094047;28;20054;-76
2021/10/09 09:52:38;;;;;;;25.25;12.73;;;;;;;;;;5094017;28;20573;-76
2021/10/09 09:55:06;;;;;;;28.83;13.40;;;;;;;;;;5092994;28;20031;-77
2021/10/09 09:57:33;;;;;;;21.30;12.77;;;;;;;;;;5094406;28;20028;-77
2021/10/09 10:00:01;;;;;;;26.10;14.07;;;;;;;;;;5092244;28;20040;-77
2021/10/09 10:02:28;;;;;;;21.80;12.18;;;;;;;;;;5094064;28;20111;-77
2021/10/09 10:04:54;;;;;;;24.40;12.98;;;;;;;;;;5093937;28;20042;-77
2021/10/09 10:07:20;;;;;;;29.98;13.70;;;;;;;;;;5093665;28;20127;-77
2021/10/09 10:09:46;;;;;;;22.38;12.90;;;;;;;;;;5093918;28;20449;-77
2021/10/09 10:12:12;;;;;;;29.50;12.07;;;;;;;;;;5093877;28;20047;-77
2021/10/09 10:14:38;;;;;;;31.08;12.48;;;;;;;;;;5093461;28;20036;-77
2021/10/09 10:17:04;;;;;;;27.08;12.30;;;;;;;;;;5093867;28;20115;-76
2021/10/09 10:19:57;;;;;;;25.08;12.50;;;;;;;;;;5093689;28;20532;-77
2021/10/09 10:22:34;;;;;;;25.27;11.45;;;;;;;;;;5092630;28;20055;-77
2021/10/09 10:25:00;;;;;;;26.27;10.85;;;;;;;;;;5093538;28;20038;-77
2021/10/09 10:27:34;;;;;;;34.95;13.10;;;;;;;;;;5093751;28;20044;-77
2021/10/09 10:30:14;;;;;;;26.02;11.55;;;;;;;;;;5093293;28;20039;-76
2021/10/09 10:32:55;;;;;;;28.02;12.35;;;;;;;;;;5093769;28;20069;-77
2021/10/09 10:35:29;;;;;;;29.23;12.07;;;;;;;;;;5092408;28;20043;-76
2021/10/09 10:38:11;;;;;;;23.30;10.52;;;;;;;;;;5093184;28;20068;-77
2021/10/09 10:40:46;;;;;;;26.77;11.40;;;;;;;;;;5093514;28;20043;-77
2021/10/09 10:43:30;;;;;;;25.75;10.80;;;;;;;;;;5093528;28;20032;-77
2021/10/09 10:45:57;;;;;;;28.60;11.23;;;;;;;;;;5093096;28;20382;-76
2021/10/09 10:54:11;;;;;;;18.38;10.32;;;;;;;;;;5092165;28;20470;-77
2021/10/09 10:57:04;;;;;;;21.90;9.90;;;;;;;;;;5093241;28;20040;-76
2021/10/09 10:59:33;;;;;;;22.63;9.98;;;;;;;;;;5093171;28;20028;-77
2021/10/09 11:02:15;;;;;;;25.65;11.13;;;;;;;;;;5092019;28;20115;-76
2021/10/09 11:04:43;;;;;;;29.50;10.32;;;;;;;;;;5093036;28;20039;-77
2021/10/09 11:07:09;;;;;;;18.45;9.73;;;;;;;;;;5090876;28;20043;-77
2021/10/09 11:09:36;;;;;;;20.20;9.77;;;;;;;;;;5091079;28;20020;-75
2021/10/09 11:12:02;;;;;;;15.57;9.27;;;;;;;;;;5093116;28;20110;-75
2021/10/09 11:14:28;;;;;;;27.90;9.43;;;;;;;;;;5096891;28;20147;-76
2021/10/09 11:17:04;;;;;;;18.75;9.68;;;;;;;;;;5097063;28;20046;-75
2021/10/09 11:19:47;;;;;;;23.50;9.57;;;;;;;;;;5096951;28;20161;-75
2021/10/09 11:22:14;;;;;;;17.10;9.27;;;;;;;;;;5097125;28;20057;-75
2021/10/09 11:24:47;;;;;;;18.98;9.15;;;;;;;;;;5096760;28;20028;-75
2021/10/09 11:27:15;;;;;;;25.65;10.27;;;;;;;;;;5097019;28;20055;-75
2021/10/09 11:29:41;;;;;;;25.98;8.40;;;;;;;;;;5095553;28;20035;-75
2021/10/09 11:32:10;;;;;;;18.48;9.13;;;;;;;;;;5096812;28;20036;-75
2021/10/09 11:34:49;;;;;;;21.38;8.65;;;;;;;;;;5096643;28;20032;-75
2021/10/09 11:37:16;;;;;;;15.95;8.63;;;;;;;;;;5096430;28;20131;-75
2021/10/09 11:39:46;;;;;;;22.88;9.30;;;;;;;;;;5095137;28;20150;-75
2021/10/09 11:42:13;;;;;;;20.90;9.18;;;;;;;;;;5096590;28;20050;-75
2021/10/09 11:44:47;;;;;;;24.25;8.55;;;;;;;;;;5096498;28;20032;-75
2021/10/09 11:55:33;;;;;;;19.13;8.80;;;;;;;;;;5092595;28;20036;-75
2021/10/09 11:58:02;;;;;;;22.42;8.07;;;;;;;;;;5095801;28;20035;-75
2021/10/09 12:00:27;;;;;;;24.50;8.15;;;;;;;;;;5096289;28;20487;-75
2021/10/09 12:02:53;;;;;;;20.50;8.65;;;;;;;;;;5096216;28;20035;-75
2021/10/09 12:05:18;;;;;;;23.15;8.77;;;;;;;;;;5096037;28;20062;-74
2021/10/09 12:08:04;;;;;;;20.73;8.43;;;;;;;;;;5096184;28;20032;-75
2021/10/09 12:10:29;;;;;;;21.25;8.45;;;;;;;;;;5096056;28;20036;-75
2021/10/09 12:13:05;;;;;;;28.65;8.80;;;;;;;;;;5096098;28;20032;-75
2021/10/09 12:15:33;;;;;;;19.33;8.70;;;;;;;;;;5095888;28;20481;-75
2021/10/09 12:17:59;;;;;;;19.50;7.75;;;;;;;;;;5095909;28;20038;-75
2021/10/09 12:20:28;;;;;;;21.88;8.07;;;;;;;;;;5095939;28;20032;-75
2021/10/09 12:22:55;;;;;;;20.40;7.75;;;;;;;;;;5095663;28;20477;-75
2021/10/09 12:25:27;;;;;;;17.08;7.35;;;;;;;;;;5096028;28;20039;-75
2021/10/09 12:27:55;;;;;;;18.50;8.10;;;;;;;;;;5094604;28;20042;-75
2021/10/09 12:30:22;;;;;;;17.88;7.60;;;;;;;;;;5095556;28;20500;-75
2021/10/09 12:32:48;;;;;;;18.38;8.35;;;;;;;;;;5095617;28;20124;-75
2021/10/09 12:35:23;;;;;;;15.30;7.50;;;;;;;;;;5095638;28;20374;-75
2021/10/09 12:37:58;;;;;;;23.15;7.85;;;;;;;;;;5095701;28;20466;-75
2021/10/09 12:40:36;;;;;;;26.95;7.03;;;;;;;;;;5095156;28;20089;-75
2021/10/09 12:43:02;;;;;;;17.52;8.13;;;;;;;;;;5095311;28;20061;-75
2021/10/09 12:45:28;;;;;;;20.20;7.72;;;;;;;;;;5095491;28;20119;-75
2021/10/09 12:47:58;;;;;;;23.67;8.63;;;;;;;;;;5095400;28;20350;-75
2021/10/09 12:50:29;;;;;;;17.00;7.10;;;;;;;;;;5095371;28;20173;-75
2021/10/09 12:52:56;;;;;;;19.67;6.55;;;;;;;;;;5095271;28;20035;-75
2021/10/09 12:55:23;;;;;;;16.55;6.65;;;;;;;;;;5094867;28;20076;-75
2021/10/09 12:57:50;;;;;;;14.73;6.47;;;;;;;;;;5095102;28;20032;-75
2021/10/09 13:00:17;;;;;;;16.42;6.70;;;;;;;;;;5095108;28;20042;-75
2021/10/09 13:02:42;;;;;;;18.63;7.22;;;;;;;;;;5095170;28;20036;-75
2021/10/09 13:05:08;;;;;;;14.18;6.50;;;;;;;;;;5094674;28;20035;-75
2021/10/09 13:07:33;;;;;;;17.25;7.15;;;;;;;;;;5095061;28;20028;-75
2021/10/09 13:09:59;;;;;;;14.50;6.28;;;;;;;;;;5093675;28;20040;-75
2021/10/09 13:12:24;;;;;;;16.00;6.05;;;;;;;;;;5094548;28;20097;-75
2021/10/09 13:14:49;;;;;;;10.65;5.65;;;;;;;;;;5094763;28;20082;-75
2021/10/09 13:17:15;;;;;;;13.80;6.35;;;;;;;;;;5094803;28;20036;-75
2021/10/09 13:19:40;;;;;;;14.98;5.78;;;;;;;;;;5094808;28;20039;-75
2021/10/09 13:22:05;;;;;;;14.43;6.32;;;;;;;;;;5094624;28;20083;-75
2021/10/09 13:24:31;;;;;;;14.52;6.57;;;;;;;;;;5094720;28;20089;-75
2021/10/09 13:26:56;;;;;;;12.57;6.03;;;;;;;;;;5094219;28;20114;-75
2021/10/09 13:29:21;;;;;;;13.38;5.55;;;;;;;;;;5094432;28;20043;-75
2021/10/09 13:31:47;;;;;;;12.95;5.75;;;;;;;;;;5093341;28;20064;-75
2021/10/09 13:34:12;;;;;;;17.60;6.53;;;;;;;;;;5094094;28;20118;-75
2021/10/09 13:36:38;;;;;;;16.92;6.10;;;;;;;;;;5094049;28;20028;-75
2021/10/09 13:39:04;;;;;;;13.05;6.82;;;;;;;;;;5091761;28;20051;-75
2021/10/09 13:41:30;;;;;;;16.25;5.55;;;;;;;;;;5091798;28;20036;-75
2021/10/09 13:43:55;;;;;;;14.27;6.00;;;;;;;;;;5094172;28;20397;-75
2021/10/09 13:46:23;;;;;;;9.32;5.70;;;;;;;;;;5094386;28;20085;-75
2021/10/09 13:48:48;;;;;;;20.27;5.30;;;;;;;;;;5094081;28;20067;-75
2021/10/09 13:51:14;;;;;;;14.35;4.97;;;;;;;;;;5094193;28;20085;-75
2021/10/09 13:53:44;;;;;;;18.08;5.60;;;;;;;;;;5093700;28;20079;-75
2021/10/09 13:56:10;;;;;;;14.20;5.30;;;;;;;;;;5093810;28;20047;-75
2021/10/09 13:58:36;;;;;;;10.02;5.32;;;;;;;;;;5093696;28;20054;-75
2021/10/09 14:01:03;;;;;;;15.63;5.30;;;;;;;;;;5094162;28;20032;-75
2021/10/09 14:03:30;;;;;;;11.23;5.25;;;;;;;;;;5093897;28;20081;-75
2021/10/09 14:05:57;;;;;;;11.98;4.57;;;;;;;;;;5093687;28;20115;-75
2021/10/09 14:08:22;;;;;;;10.55;4.80;;;;;;;;;;5093519;28;20032;-75
2021/10/09 14:10:47;;;;;;;8.77;4.63;;;;;;;;;;5093464;28;20089;-75
2021/10/09 14:13:13;;;;;;;16.15;5.20;;;;;;;;;;5091471;28;20028;-75
2021/10/09 14:15:39;;;;;;;14.43;4.75;;;;;;;;;;5093747;28;20036;-75
2021/10/09 14:18:05;;;;;;;12.15;4.53;;;;;;;;;;5093828;28;20028;-75
2021/10/09 14:20:30;;;;;;;14.77;4.93;;;;;;;;;;5093556;28;20039;-74
2021/10/09 14:22:57;;;;;;;10.88;4.57;;;;;;;;;;5093461;28;20057;-75
2021/10/09 14:25:29;;;;;;;11.07;4.72;;;;;;;;;;5093464;28;20028;-75
2021/10/09 14:27:54;;;;;;;12.45;5.03;;;;;;;;;;5093413;28;20072;-74
2021/10/09 14:30:20;;;;;;;12.27;4.65;;;;;;;;;;5093538;28;20063;-75
2021/10/09 14:32:45;;;;;;;10.15;5.00;;;;;;;;;;5093465;28;20132;-74
2021/10/09 14:35:11;;;;;;;9.25;4.53;;;;;;;;;;5093167;28;20043;-74
2021/10/09 14:37:36;;;;;;;14.35;4.97;;;;;;;;;;5093346;28;20059;-75
2021/10/09 14:40:02;;;;;;;15.65;5.35;;;;;;;;;;5092050;28;20043;-75
2021/10/09 14:42:28;;;;;;;11.48;5.32;;;;;;;;;;5092960;28;20508;-75
2021/10/09 14:44:53;;;;;;;12.23;4.97;;;;;;;;;;5093504;28;20032;-75
2021/10/09 14:49:57;;;;;;;13.43;5.30;;;;;;;;;;5099971;28;20614;-75
2021/10/09 15:19:40;;;;;;;8.68;4.80;;;;;;;;;;5099641;28;20040;-75
2021/10/09 15:22:06;;;;;;;13.40;5.18;;;;;;;;;;5099828;28;20047;-76
2021/10/09 15:24:32;;;;;;;8.65;5.25;;;;;;;;;;5098673;28;20055;-76
2021/10/09 15:26:57;;;;;;;9.77;4.47;;;;;;;;;;5099077;28;20032;-75
2021/10/09 15:29:22;;;;;;;11.77;5.57;;;;;;;;;;5098912;28;20048;-75
2021/10/09 15:31:48;;;;;;;9.10;4.40;;;;;;;;;;5099109;28;20023;-75
2021/10/09 15:34:13;;;;;;;9.57;4.13;;;;;;;;;;5099067;28;20036;-75
2021/10/09 15:36:39;;;;;;;9.98;4.75;;;;;;;;;;5099387;28;20040;-75
2021/10/09 15:39:04;;;;;;;8.13;4.50;;;;;;;;;;5098969;28;20105;-74
2021/10/09 15:41:29;;;;;;;13.48;5.55;;;;;;;;;;5098524;28;20535;-75
2021/10/09 15:43:55;;;;;;;10.98;4.70;;;;;;;;;;5097918;28;20485;-76
2021/10/09 15:46:20;;;;;;;10.63;3.97;;;;;;;;;;5099309;28;20032;-75
2021/10/09 15:48:46;;;;;;;12.95;4.43;;;;;;;;;;5099385;28;20043;-76
2021/10/09 15:51:11;;;;;;;10.65;4.20;;;;;;;;;;5099305;28;20036;-75
2021/10/09 15:53:36;;;;;;;9.73;4.40;;;;;;;;;;5098609;28;20036;-76
2021/10/09 15:56:02;;;;;;;10.43;4.45;;;;;;;;;;5098712;28;20173;-75
2021/10/09 15:58:27;;;;;;;7.00;4.65;;;;;;;;;;5096198;28;20050;-74
2021/10/09 16:00:54;;;;;;;7.57;3.97;;;;;;;;;;5095679;28;20047;-74
2021/10/09 16:03:19;;;;;;;11.13;3.97;;;;;;;;;;5095777;28;20428;-74
2021/10/09 16:05:44;;;;;;;7.07;4.57;;;;;;;;;;5094499;28;20032;-75
2021/10/09 16:08:10;;;;;;;8.40;4.22;;;;;;;;;;5095778;28;20032;-75
2021/10/09 16:10:35;;;;;;;11.65;3.50;;;;;;;;;;5095046;28;20408;-74
2021/10/09 16:13:00;;;;;;;17.63;3.95;;;;;;;;;;5094628;28;20442;-75
2021/10/09 16:15:26;;;;;;;8.85;3.92;;;;;;;;;;5094393;28;20055;-74
2021/10/09 16:17:51;;;;;;;13.40;3.75;;;;;;;;;;5095575;28;20131;-74
2021/10/09 16:20:17;;;;;;;8.13;3.75;;;;;;;;;;5094905;28;20485;-74
2021/10/09 16:22:42;;;;;;;9.65;4.00;;;;;;;;;;5095831;28;20042;-74
2021/10/09 16:25:08;;;;;;;12.43;3.45;;;;;;;;;;5095316;28;20074;-74
2021/10/09 16:27:34;;;;;;;10.52;3.50;;;;;;;;;;5095448;28;20043;-74
2021/10/09 16:29:59;;;;;;;16.70;7.78;;;;;;;;;;5094041;28;20028;-74
2021/10/09 16:32:25;;;;;;;13.93;7.15;;;;;;;;;;5095741;28;20050;-74
2021/10/09 16:34:50;;;;;;;11.65;5.70;;;;;;;;;;5095389;28;20032;-75
2021/10/09 16:37:16;;;;;;;13.65;4.50;;;;;;;;;;5095258;28;20032;-74
2021/10/09 16:39:42;;;;;;;6.03;4.00;;;;;;;;;;5094557;28;20040;-75
2021/10/09 16:42:07;;;;;;;12.05;3.90;;;;;;;;;;5094970;28;20385;-74
2021/10/09 16:44:33;;;;;;;6.07;3.38;;;;;;;;;;5095198;28;20036;-74
2021/10/09 16:46:58;;;;;;;6.03;3.88;;;;;;;;;;5094615;28;20083;-73
2021/10/09 16:49:24;;;;;;;7.63;3.45;;;;;;;;;;5095164;28;20040;-75
2021/10/09 16:51:50;;;;;;;8.63;4.18;;;;;;;;;;5095527;28;20039;-77
2021/10/09 16:54:16;;;;;;;11.30;4.50;;;;;;;;;;5094935;28;20074;-76
2021/10/09 16:56:42;;;;;;;10.13;4.35;;;;;;;;;;5094227;28;20115;-77